Terminal Aerodrome Forecast
Issued by NWS

Home | Current Version | Previous Version | Text Only | Print | Product List | Glossary On
Versions: 1 2 3 4 5 6 7 8 9 10 11 12 13 14 15 16 17 18 19 20 21 22 23 24 25 26 27
000
FTUS44 KLIX 230520
TAFASD
TAF
KASD 230520Z 2306/2406 00000KT P6SM SCT200
     FM230900 VRB03KT P6SM FEW025 PROB30 2316/2318 4SM TSRA BKN025CB
     FM231800 VRB05KT P6SM BKN035 PROB30 2318/2324 4SM TSRA
      BKN025CB=

USA.gov is the U.S. government's official web portal to all federal, state and local government web resources and services.